Time;durP1;ratioP1;P1;durP2;ratioP2;P2;SDS_P1;SDS_P2;PMS_P1;PMS_P2;Temp;Humidity;BMP_temperature;BMP_pressure;BME280_temperature;BME280_humidity;BME280_pressure;Samples;Min_cycle;Max_cycle;Signal;HPM_P1;HPM_P2
2021/11/06 00:00:37;;;;;;;31.70;25.65;;;;;;;6.26;100.00;99964.78;2096092;28;20301;-80
2021/11/06 00:01:38;;;;;;;34.95;25.55;;;;;;;6.24;100.00;99965.78;2089146;28;20317;-79
2021/11/06 00:02:40;;;;;;;28.43;24.47;;;;;;;6.22;100.00;99954.66;2096300;28;20688;-79
2021/11/06 00:03:41;;;;;;;33.08;25.00;;;;;;;6.20;100.00;99967.34;2096851;28;20464;-80
2021/11/06 00:04:45;;;;;;;32.40;25.07;;;;;;;6.19;100.00;99972.88;2096228;28;20256;-80
2021/11/06 00:05:46;;;;;;;30.15;25.58;;;;;;;6.20;100.00;99967.34;2096212;28;20355;-79
2021/11/06 00:06:48;;;;;;;31.73;26.07;;;;;;;6.17;100.00;99972.34;2095792;28;20222;-79
2021/11/06 00:07:50;;;;;;;31.98;25.60;;;;;;;6.20;100.00;99972.63;2095799;28;20218;-79
2021/11/06 00:08:52;;;;;;;31.88;26.80;;;;;;;6.17;100.00;99973.13;2096147;28;20256;-79
2021/11/06 00:09:53;;;;;;;35.17;27.10;;;;;;;6.17;100.00;99972.34;2104012;28;20229;-77
2021/11/06 00:10:57;;;;;;;31.53;26.53;;;;;;;6.17;100.00;99981.09;2096424;28;20279;-78
2021/11/06 00:11:58;;;;;;;31.42;26.45;;;;;;;6.16;100.00;99982.09;2104407;28;20243;-79
2021/11/06 00:13:00;;;;;;;32.13;26.67;;;;;;;6.14;100.00;99972.81;2104390;28;20223;-77
2021/11/06 00:14:01;;;;;;;32.40;26.73;;;;;;;6.10;100.00;99975.16;2095288;28;20280;-77
2021/11/06 00:15:02;;;;;;;32.05;26.55;;;;;;;6.11;100.00;99971.47;2103766;28;20291;-77
2021/11/06 00:16:05;;;;;;;33.35;26.23;;;;;;;6.12;100.00;99975.72;2104153;28;20565;-77
2021/11/06 00:17:06;;;;;;;29.98;26.25;;;;;;;6.10;100.00;99982.31;2088099;28;20218;-76
2021/11/06 00:18:07;;;;;;;31.90;26.07;;;;;;;6.09;100.00;99981.50;2089489;28;20306;-77
2021/11/06 00:19:12;;;;;;;30.40;26.23;;;;;;;6.05;100.00;99979.56;2095655;28;20230;-77
2021/11/06 00:20:15;;;;;;;34.40;26.35;;;;;;;6.05;100.00;99988.31;2103508;28;20301;-77
2021/11/06 00:21:16;;;;;;;30.08;25.85;;;;;;;6.05;100.00;99988.31;2096843;28;20214;-77
2021/11/06 00:22:18;;;;;;;31.13;25.93;;;;;;;6.03;100.00;99990.41;2087874;28;20246;-77
2021/11/06 00:23:21;;;;;;;32.20;26.10;;;;;;;5.97;100.00;99987.94;2104051;28;20234;-77
2021/11/06 00:24:22;;;;;;;30.55;26.35;;;;;;;5.95;100.00;99990.81;2097682;28;20225;-75
2021/11/06 00:25:24;;;;;;;34.67;26.73;;;;;;;5.94;100.00;99994.53;2086502;28;20233;-77
2021/11/06 00:26:25;;;;;;;35.15;27.05;;;;;;;5.93;100.00;99995.56;2096258;28;20222;-77
2021/11/06 00:27:27;;;;;;;35.10;27.50;;;;;;;5.91;100.00;99990.50;2096867;28;20226;-77
2021/11/06 00:28:27;;;;;;;33.72;27.38;;;;;;;5.89;100.00;99991.75;2096960;28;20225;-77
2021/11/06 00:29:29;;;;;;;31.80;27.30;;;;;;;5.85;100.00;99988.00;2095934;28;20249;-77
2021/11/06 00:30:31;;;;;;;34.00;28.02;;;;;;;5.83;100.00;99992.75;2096218;28;20218;-76
2021/11/06 00:31:32;;;;;;;36.50;28.17;;;;;;;5.84;100.00;99994.34;2096944;28;20698;-77
2021/11/06 00:32:37;;;;;;;34.73;27.17;;;;;;;5.81;100.00;100000.09;2096767;28;20669;-76
2021/11/06 00:33:38;;;;;;;33.72;27.17;;;;;;;5.78;100.00;99990.00;2095968;28;20230;-75
2021/11/06 00:34:40;;;;;;;36.10;27.43;;;;;;;5.77;100.00;99993.69;2112673;28;20250;-76
2021/11/06 00:35:41;;;;;;;35.63;27.70;;;;;;;5.74;100.00;99995.00;2112735;28;20653;-77
2021/11/06 00:36:42;;;;;;;37.45;27.80;;;;;;;5.71;100.00;99995.44;2096771;28;20225;-77
2021/11/06 00:37:45;;;;;;;34.80;27.20;;;;;;;5.73;100.00;100005.78;2096802;28;20242;-77
2021/11/06 00:38:47;;;;;;;34.28;27.95;;;;;;;5.70;100.00;99993.03;2096864;28;20616;-77
2021/11/06 00:39:50;;;;;;;33.78;27.25;;;;;;;5.70;100.00;99993.03;2096048;28;20222;-77
2021/11/06 00:40:51;;;;;;;38.28;28.33;;;;;;;5.68;100.00;99991.44;2096124;28;20220;-77
2021/11/06 00:41:53;;;;;;;36.73;28.27;;;;;;;5.71;100.00;100000.75;2096331;28;20236;-77
2021/11/06 00:42:54;;;;;;;37.33;29.10;;;;;;;5.66;100.00;99998.84;2095853;28;20825;-77
2021/11/06 00:43:55;;;;;;;37.90;28.17;;;;;;;5.65;100.00;99997.22;2087588;28;20314;-76
2021/11/06 00:44:56;;;;;;;35.85;27.98;;;;;;;5.65;100.00;99999.88;2096032;28;20275;-77
2021/11/06 00:45:59;;;;;;;33.80;28.10;;;;;;;5.65;100.00;99997.22;2095715;28;20234;-76
2021/11/06 00:47:00;;;;;;;37.38;29.40;;;;;;;5.66;100.00;100000.69;2096042;28;20349;-77
2021/11/06 00:48:02;;;;;;;34.47;28.53;;;;;;;5.65;100.00;99996.44;2096781;28;20229;-77
2021/11/06 00:49:03;;;;;;;35.03;28.70;;;;;;;5.66;100.00;100006.78;2112278;28;20216;-77
2021/11/06 00:50:07;;;;;;;37.60;29.60;;;;;;;5.68;100.00;100011.81;2112791;28;20258;-77
2021/11/06 00:51:08;;;;;;;37.13;28.63;;;;;;;5.70;100.00;100004.44;2096418;28;20305;-76
2021/11/06 00:52:11;;;;;;;36.33;28.80;;;;;;;5.68;100.00;100006.53;2096641;28;20218;-77
2021/11/06 00:53:12;;;;;;;36.95;29.05;;;;;;;5.68;100.00;100009.19;2096815;28;20789;-76
2021/11/06 00:54:15;;;;;;;37.72;29.60;;;;;;;5.68;100.00;100007.34;2094979;28;20305;-76
2021/11/06 00:55:18;;;;;;;31.63;27.63;;;;;;;5.70;100.00;100008.94;2096027;28;20523;-77
2021/11/06 00:56:19;;;;;;;38.08;29.45;;;;;;;5.72;100.00;100009.50;2095945;28;20222;-76
2021/11/06 00:57:21;;;;;;;40.57;29.43;;;;;;;5.78;100.00;100011.19;2103578;28;20241;-77
2021/11/06 00:58:21;;;;;;;34.83;29.02;;;;;;;5.77;100.00;100006.94;2112808;28;20228;-76
2021/11/06 00:59:23;;;;;;;34.43;28.93;;;;;;;5.72;100.00;100007.63;2096374;28;20301;-75
2021/11/06 01:00:24;;;;;;;34.92;27.92;;;;;;;5.65;100.00;100002.53;2095491;28;20233;-76
2021/11/06 01:01:27;;;;;;;35.03;28.58;;;;;;;5.64;100.00;100003.53;2096048;28;20699;-76
2021/11/06 01:02:28;;;;;;;36.22;28.88;;;;;;;5.63;100.00;100009.09;2096755;28;20218;-76
2021/11/06 01:03:30;;;;;;;33.53;28.23;;;;;;;5.63;100.00;100012.53;2095763;28;20250;-77
2021/11/06 01:04:31;;;;;;;38.30;29.15;;;;;;;5.62;100.00;100013.56;2096165;28;20218;-77
2021/11/06 01:05:33;;;;;;;35.90;28.57;;;;;;;5.64;100.00;100015.97;2095978;28;20241;-76
2021/11/06 01:06:33;;;;;;;33.50;28.45;;;;;;;5.63;100.00;100015.19;2095907;28;20319;-77
2021/11/06 01:07:36;;;;;;;36.80;29.43;;;;;;;5.65;100.00;100021.06;2087616;28;20283;-77
2021/11/06 01:08:37;;;;;;;37.65;29.13;;;;;;;5.63;100.00;100017.81;2095623;28;20718;-75
2021/11/06 01:09:40;;;;;;;34.75;28.67;;;;;;;5.64;100.00;100018.63;2095811;28;20250;-75
2021/11/06 01:10:43;;;;;;;36.65;28.83;;;;;;;5.64;100.00;100024.72;2095903;28;20289;-76
2021/11/06 01:11:45;;;;;;;33.58;28.33;;;;;;;5.66;100.00;100016.56;2096743;28;20672;-77
2021/11/06 01:12:46;;;;;;;33.28;27.75;;;;;;;5.66;100.00;100014.72;2096619;28;20226;-76
2021/11/06 01:13:48;;;;;;;33.40;28.77;;;;;;;5.66;100.00;100024.50;2096701;28;20225;-77
2021/11/06 01:14:48;;;;;;;34.83;29.23;;;;;;;5.66;100.00;100014.72;2095959;28;20222;-77
2021/11/06 01:15:50;;;;;;;32.97;27.93;;;;;;;5.63;100.00;100015.19;2087493;28;20772;-76
2021/11/06 01:16:51;;;;;;;34.45;28.77;;;;;;;5.62;100.00;100016.22;2095892;28;20225;-77
2021/11/06 01:17:53;;;;;;;31.80;27.57;;;;;;;5.63;100.00;100011.72;2104779;28;20226;-75
2021/11/06 01:18:53;;;;;;;35.15;28.35;;;;;;;5.58;100.00;100012.47;2104969;28;20225;-75
2021/11/06 01:19:55;;;;;;;31.33;27.93;;;;;;;5.58;100.00;100007.16;2104952;28;20217;-75
2021/11/06 01:20:56;;;;;;;34.38;28.38;;;;;;;5.58;100.00;100015.09;2105116;28;20714;-76
2021/11/06 01:21:59;;;;;;;32.25;27.42;;;;;;;5.57;100.00;100008.22;2104081;28;20229;-75
2021/11/06 01:23:00;;;;;;;30.63;27.33;;;;;;;5.57;100.00;100010.06;2104294;28;20268;-77
2021/11/06 01:24:02;;;;;;;32.60;27.03;;;;;;;5.57;100.00;100013.50;2104977;28;20287;-77
2021/11/06 01:25:06;;;;;;;33.15;27.27;;;;;;;5.58;100.00;100011.66;2104975;28;20213;-77
2021/11/06 01:26:07;;;;;;;32.83;27.50;;;;;;;5.56;100.00;100011.91;2103738;28;20244;-74
2021/11/06 01:27:10;;;;;;;30.90;26.95;;;;;;;5.57;100.00;100015.34;2105655;28;20225;-77
2021/11/06 01:28:12;;;;;;;30.55;27.25;;;;;;;5.54;100.00;100016.63;2104977;28;20718;-76
2021/11/06 01:29:13;;;;;;;30.20;26.90;;;;;;;5.55;100.00;100020.06;2097345;28;20312;-77
2021/11/06 01:30:16;;;;;;;32.80;27.23;;;;;;;5.54;100.00;100013.97;2105778;28;20228;-76
2021/11/06 01:31:17;;;;;;;29.67;26.48;;;;;;;5.49;100.00;100016.53;2106494;28;20732;-77
2021/11/06 01:32:19;;;;;;;31.03;26.83;;;;;;;5.49;100.00;100008.59;2106456;28;20619;-77
2021/11/06 01:33:19;;;;;;;29.35;25.85;;;;;;;5.51;100.00;100011.00;2106430;28;20267;-76
2021/11/06 01:34:21;;;;;;;28.63;25.60;;;;;;;5.48;100.00;100017.59;2105626;28;20287;-76
2021/11/06 01:35:22;;;;;;;30.73;26.75;;;;;;;5.47;100.00;100017.81;2105459;28;20221;-74
2021/11/06 01:36:25;;;;;;;30.60;26.90;;;;;;;5.47;100.00;100012.50;2104944;28;20747;-76
2021/11/06 01:37:27;;;;;;;29.52;26.38;;;;;;;5.45;100.00;100012.75;2105528;28;20272;-76
2021/11/06 01:38:29;;;;;;;31.03;25.87;;;;;;;5.47;100.00;100018.59;2106536;28;20217;-76
2021/11/06 01:39:30;;;;;;;30.20;25.48;;;;;;;5.44;100.00;100015.66;2106459;28;20225;-76
2021/11/06 01:40:33;;;;;;;30.97;26.93;;;;;;;5.43;100.00;100020.13;2106366;28;20699;-76
2021/11/06 01:41:34;;;;;;;28.25;25.20;;;;;;;5.46;100.00;100024.94;2105476;28;20789;-77
2021/11/06 01:42:38;;;;;;;29.15;26.05;;;;;;;5.39;100.00;100008.44;2094832;28;20230;-77
2021/11/06 01:43:40;;;;;;;30.15;26.35;;;;;;;5.40;100.00;100015.34;2097308;28;20237;-75
2021/11/06 01:44:42;;;;;;;30.20;27.00;;;;;;;5.40;100.00;100017.97;2096504;28;20226;-76
2021/11/06 01:45:43;;;;;;;29.55;26.33;;;;;;;5.35;100.00;100010.75;2105767;28;20439;-76
2021/11/06 01:46:45;;;;;;;28.92;25.60;;;;;;;5.33;100.00;100022.59;2106317;28;20710;-76
2021/11/06 01:47:46;;;;;;;29.85;26.10;;;;;;;5.32;100.00;100010.41;2105094;28;20221;-76
2021/11/06 01:48:49;;;;;;;30.27;25.47;;;;;;;5.30;100.00;100012.47;2105658;28;20252;-76
2021/11/06 01:49:50;;;;;;;31.40;26.27;;;;;;;5.29;100.00;100013.53;2106382;28;20240;-76
2021/11/06 01:50:53;;;;;;;30.13;26.67;;;;;;;5.27;100.00;100011.13;2106445;28;20237;-77
2021/11/06 01:51:54;;;;;;;30.15;25.88;;;;;;;5.26;100.00;100014.00;2105935;28;20485;-76
2021/11/06 01:52:56;;;;;;;30.98;26.65;;;;;;;5.24;100.00;100013.44;2106307;28;20324;-76
2021/11/06 01:53:57;;;;;;;29.27;26.10;;;;;;;5.22;100.00;100018.19;2105235;28;20255;-76
2021/11/06 01:54:58;;;;;;;30.70;26.60;;;;;;;5.22;100.00;100012.88;2105069;28;20300;-76
2021/11/06 01:56:02;;;;;;;30.45;27.15;;;;;;;5.20;100.00;100017.59;2106445;28;20217;-76
2021/11/06 01:57:09;;;;;;;30.67;26.95;;;;;;;5.18;100.00;100015.19;2104552;28;20216;-77
2021/11/06 01:58:10;;;;;;;29.38;26.25;;;;;;;5.17;100.00;100018.88;2105034;28;20304;-76
2021/11/06 01:59:12;;;;;;;30.17;26.73;;;;;;;5.14;100.00;100010.63;2106266;28;20229;-76
2021/11/06 02:00:17;;;;;;;29.77;25.73;;;;;;;5.15;100.00;100017.50;2106218;28;20568;-77
2021/11/06 02:01:18;;;;;;;28.80;25.63;;;;;;;5.15;100.00;100022.81;2104659;28;20221;-76
2021/11/06 02:02:20;;;;;;;29.77;25.95;;;;;;;5.15;100.00;100018.31;2105456;28;20745;-76
2021/11/06 02:03:21;;;;;;;30.02;26.20;;;;;;;5.16;100.00;100014.63;2105400;28;20221;-76
2021/11/06 02:04:24;;;;;;;32.47;28.33;;;;;;;5.17;100.00;100018.06;2105088;28;20229;-75
2021/11/06 02:05:25;;;;;;;30.85;25.80;;;;;;;5.15;100.00;100015.69;2106264;28;20247;-76
2021/11/06 02:06:27;;;;;;;31.53;27.53;;;;;;;5.11;100.00;100020.63;2106262;28;20245;-76
2021/11/06 02:07:28;;;;;;;30.67;27.35;;;;;;;5.11;100.00;100022.47;2105473;28;20225;-76
2021/11/06 02:08:29;;;;;;;32.90;28.10;;;;;;;5.15;100.00;100017.50;2105373;28;20760;-75
2021/11/06 02:09:30;;;;;;;37.33;29.85;;;;;;;5.17;100.00;100023.38;2106077;28;20676;-76
2021/11/06 02:10:33;;;;;;;29.87;26.70;;;;;;;5.15;100.00;100020.16;2105202;28;20648;-75
2021/11/06 02:11:35;;;;;;;31.13;27.40;;;;;;;5.17;100.00;100013.59;2105454;28;20274;-77
2021/11/06 02:12:37;;;;;;;31.17;27.25;;;;;;;5.18;100.00;100022.31;2106221;28;20282;-76
2021/11/06 02:13:38;;;;;;;31.38;27.38;;;;;;;5.20;100.00;100025.53;2105812;28;20589;-75
2021/11/06 02:14:40;;;;;;;32.60;27.47;;;;;;;5.18;100.00;100023.13;2105031;28;20241;-75
2021/11/06 02:15:42;;;;;;;30.30;27.08;;;;;;;5.21;100.00;100019.19;2105442;28;20229;-77
2021/11/06 02:16:45;;;;;;;30.45;27.33;;;;;;;5.25;100.00;100018.50;2106112;28;20221;-76
2021/11/06 02:17:49;;;;;;;34.33;28.30;;;;;;;5.25;100.00;100023.00;2106089;28;20227;-76
2021/11/06 02:18:50;;;;;;;30.65;27.20;;;;;;;5.23;100.00;100014.50;2105234;28;20254;-76
2021/11/06 02:19:52;;;;;;;31.17;27.50;;;;;;;5.24;100.00;100021.38;2105509;28;20225;-76
2021/11/06 02:21:01;;;;;;;35.08;28.33;;;;;;;5.25;100.00;100018.50;2095957;28;20714;-75
2021/11/06 02:22:02;;;;;;;30.42;26.92;;;;;;;5.28;100.00;100018.00;2097140;28;20718;-77
2021/11/06 02:23:03;;;;;;;30.95;27.60;;;;;;;5.29;100.00;100026.75;2096965;28;20218;-77
2021/11/06 02:24:06;;;;;;;29.57;26.47;;;;;;;5.28;100.00;100022.50;2096993;28;20287;-77
2021/11/06 02:25:08;;;;;;;31.10;27.77;;;;;;;5.25;100.00;100007.91;2097262;28;20226;-77
2021/11/06 02:26:11;;;;;;;30.23;26.92;;;;;;;5.26;100.00;100024.59;2097684;28;20245;-75
2021/11/06 02:27:12;;;;;;;30.70;27.35;;;;;;;5.24;100.00;100008.97;2097631;28;20703;-76
2021/11/06 02:28:14;;;;;;;30.20;27.10;;;;;;;5.25;100.00;100017.69;2097797;28;20575;-77
2021/11/06 02:29:16;;;;;;;35.10;27.70;;;;;;;5.21;100.00;100013.91;2096484;28;20287;-76
2021/11/06 02:30:19;;;;;;;33.88;28.08;;;;;;;5.22;100.00;100018.19;2097015;28;20225;-77
2021/11/06 02:31:20;;;;;;;36.65;30.27;;;;;;;5.21;100.00;100016.56;2096893;28;20305;-76
2021/11/06 02:32:22;;;;;;;30.25;27.08;;;;;;;5.20;100.00;100015.75;2097008;28;20218;-76
2021/11/06 02:33:23;;;;;;;30.70;27.13;;;;;;;5.21;100.00;100024.50;2097372;28;20309;-76
2021/11/06 02:34:25;;;;;;;29.57;26.50;;;;;;;5.19;100.00;100016.78;2097626;28;20243;-76
2021/11/06 02:35:26;;;;;;;30.77;27.48;;;;;;;5.17;100.00;100024.16;2097611;28;20582;-76
2021/11/06 02:36:29;;;;;;;31.20;26.63;;;;;;;5.21;100.00;100021.84;2097293;28;20234;-77
2021/11/06 02:37:30;;;;;;;30.80;27.55;;;;;;;5.21;100.00;100016.56;2097537;28;20233;-76
2021/11/06 02:38:32;;;;;;;30.97;27.27;;;;;;;5.20;100.00;100023.69;2096776;28;20225;-77
2021/11/06 02:39:33;;;;;;;30.20;27.02;;;;;;;5.23;100.00;100025.88;2097681;28;20710;-76
2021/11/06 02:40:35;;;;;;;30.77;26.90;;;;;;;5.21;100.00;100021.84;2096415;28;20620;-77
2021/11/06 02:41:36;;;;;;;31.33;26.98;;;;;;;5.18;100.00;100022.31;2096781;28;20226;-77
2021/11/06 02:42:38;;;;;;;29.37;26.30;;;;;;;5.19;100.00;100021.28;2097122;28;20237;-75
2021/11/06 02:43:39;;;;;;;29.60;26.60;;;;;;;5.18;100.00;100022.31;2096315;28;20277;-76
2021/11/06 02:44:42;;;;;;;35.40;27.07;;;;;;;5.17;100.00;100015.44;2096705;28;20323;-76
2021/11/06 02:45:44;;;;;;;31.40;26.77;;;;;;;5.16;100.00;100019.91;2095919;28;20222;-77
2021/11/06 02:46:46;;;;;;;29.30;26.30;;;;;;;5.17;100.00;100020.72;2098875;28;20309;-77
2021/11/06 02:47:46;;;;;;;30.85;27.60;;;;;;;5.10;100.00;100016.38;2096770;28;20226;-76
2021/11/06 02:48:48;;;;;;;31.57;27.57;;;;;;;5.13;100.00;100014.31;2096410;28;20242;-77
2021/11/06 02:49:49;;;;;;;30.67;27.42;;;;;;;5.11;100.00;100022.47;2088548;28;20218;-77
2021/11/06 02:50:51;;;;;;;29.73;26.47;;;;;;;5.10;100.00;100016.38;2096727;28;20253;-77
2021/11/06 02:51:53;;;;;;;31.80;27.02;;;;;;;5.10;100.00;100021.66;2096937;28;20555;-75
2021/11/06 02:52:58;;;;;;;31.58;26.60;;;;;;;5.09;100.00;100013.97;2097441;28;20218;-75
2021/11/06 02:54:00;;;;;;;29.25;26.25;;;;;;;5.16;100.00;100022.56;2096033;28;20341;-76
2021/11/06 02:55:02;;;;;;;29.95;26.45;;;;;;;5.21;100.00;100021.84;2096646;28;20778;-77
2021/11/06 02:56:03;;;;;;;30.48;27.20;;;;;;;5.19;100.00;100016.78;2096685;28;20221;-76
2021/11/06 02:57:05;;;;;;;28.92;25.75;;;;;;;5.16;100.00;100016.47;2096844;28;20218;-77
2021/11/06 02:58:07;;;;;;;29.90;26.25;;;;;;;5.15;100.00;100014.88;2097464;28;20561;-76
2021/11/06 02:59:10;;;;;;;30.23;26.65;;;;;;;5.08;100.00;100010.53;2097065;28;20279;-76
2021/11/06 03:00:13;;;;;;;30.02;26.77;;;;;;;5.10;100.00;100013.72;2097324;28;20228;-77
2021/11/06 03:01:16;;;;;;;30.52;26.98;;;;;;;5.07;100.00;100027.44;2097363;28;20222;-76
2021/11/06 03:02:17;;;;;;;30.98;26.50;;;;;;;5.05;100.00;100024.22;2096550;28;20229;-76
2021/11/06 03:03:19;;;;;;;29.53;26.33;;;;;;;5.05;100.00;100023.41;2096792;28;20210;-77
2021/11/06 03:04:20;;;;;;;28.95;25.83;;;;;;;5.01;100.00;100017.78;2097262;28;20217;-76
2021/11/06 03:05:22;;;;;;;30.55;27.27;;;;;;;5.02;100.00;100023.88;2096425;28;20293;-76
2021/11/06 03:06:23;;;;;;;29.58;26.40;;;;;;;5.00;100.00;100020.66;2096399;28;20225;-76
2021/11/06 03:07:27;;;;;;;31.85;28.42;;;;;;;4.98;100.00;100026.19;2104923;28;20307;-76
2021/11/06 03:08:28;;;;;;;30.27;26.88;;;;;;;4.96;100.00;100030.94;2098637;28;20741;-77
2021/11/06 03:09:30;;;;;;;32.37;27.60;;;;;;;4.89;100.00;100022.31;2097472;28;20622;-76
2021/11/06 03:10:30;;;;;;;30.13;27.05;;;;;;;4.92;100.00;100036.91;2097393;28;20304;-77
2021/11/06 03:11:32;;;;;;;29.67;26.50;;;;;;;4.89;100.00;100032.91;2096565;28;20210;-77
2021/11/06 03:12:35;;;;;;;30.17;26.98;;;;;;;4.87;100.00;100028.88;2088353;28;20218;-77
2021/11/06 03:13:38;;;;;;;31.52;26.75;;;;;;;4.86;100.00;100036.00;2088472;28;20260;-76
2021/11/06 03:14:39;;;;;;;36.72;27.33;;;;;;;4.85;100.00;100036.22;2102926;28;20701;-76
2021/11/06 03:15:41;;;;;;;30.08;26.98;;;;;;;4.85;100.00;100033.59;2104168;28;20225;-76
2021/11/06 03:16:42;;;;;;;29.98;26.80;;;;;;;4.79;100.00;100024.78;2105012;28;20225;-75
2021/11/06 03:17:44;;;;;;;29.50;26.50;;;;;;;4.76;100.00;100033.94;2098442;28;20225;-76
2021/11/06 03:18:45;;;;;;;29.13;26.05;;;;;;;4.79;100.00;100035.34;2096496;28;20676;-76
2021/11/06 03:19:47;;;;;;;30.60;27.30;;;;;;;4.78;100.00;100049.59;2096660;28;20677;-76
2021/11/06 03:20:51;;;;;;;30.80;27.20;;;;;;;4.78;100.00;100042.47;2096517;28;20218;-77
2021/11/06 03:21:53;;;;;;;29.40;26.30;;;;;;;4.76;100.00;100043.72;2088269;28;20239;-74
2021/11/06 03:22:58;;;;;;;30.88;26.08;;;;;;;4.73;100.00;100037.06;2096537;28;20292;-77
2021/11/06 03:23:59;;;;;;;28.90;25.88;;;;;;;4.75;100.00;100039.47;2097204;28;20251;-76
2021/11/06 03:25:02;;;;;;;29.38;26.08;;;;;;;4.74;100.00;100048.44;2097196;28;20230;-76
2021/11/06 03:26:03;;;;;;;29.70;26.70;;;;;;;4.70;100.00;100042.03;2096449;28;20708;-77
2021/11/06 03:27:07;;;;;;;28.43;25.43;;;;;;;4.69;100.00;100046.50;2088234;28;20612;-76
2021/11/06 03:28:09;;;;;;;30.90;26.55;;;;;;;4.71;100.00;100048.91;2098360;28;20236;-77
2021/11/06 03:29:10;;;;;;;28.25;25.23;;;;;;;4.69;100.00;100045.69;2096316;28;20688;-76
2021/11/06 03:30:12;;;;;;;28.42;25.38;;;;;;;4.64;100.00;100048.25;2096469;28;20684;-76
2021/11/06 03:31:14;;;;;;;28.73;25.73;;;;;;;4.62;100.00;100047.66;2096599;28;20222;-76
2021/11/06 03:32:14;;;;;;;30.13;26.67;;;;;;;4.61;100.00;100054.00;2097171;28;20230;-76
2021/11/06 03:33:16;;;;;;;30.33;26.50;;;;;;;4.58;100.00;100054.44;2097127;28;20214;-77
2021/11/06 03:34:19;;;;;;;30.70;27.23;;;;;;;4.56;100.00;100051.22;2097142;28;20699;-76
2021/11/06 03:35:22;;;;;;;31.42;26.35;;;;;;;4.54;100.00;100054.91;2097116;28;20222;-76
2021/11/06 03:36:23;;;;;;;29.95;26.67;;;;;;;4.54;100.00;100048.81;2102428;28;20264;-76
2021/11/06 03:37:25;;;;;;;30.60;26.47;;;;;;;4.52;100.00;100046.41;2095968;28;20222;-76
2021/11/06 03:38:27;;;;;;;29.55;26.45;;;;;;;4.56;100.00;100051.22;2096396;28;20217;-76
2021/11/06 03:39:29;;;;;;;30.08;26.98;;;;;;;4.51;100.00;100047.44;2097111;28;20708;-75
2021/11/06 03:40:31;;;;;;;30.77;27.45;;;;;;;4.47;100.00;100054.22;2096317;28;20229;-75
2021/11/06 03:41:33;;;;;;;29.38;26.35;;;;;;;4.44;100.00;100057.34;2096115;28;20308;-76
2021/11/06 03:42:34;;;;;;;29.70;26.50;;;;;;;4.41;100.00;100055.16;2088237;28;20231;-76
2021/11/06 03:43:36;;;;;;;29.30;25.70;;;;;;;4.40;100.00;100053.53;2096002;28;20313;-76
2021/11/06 03:44:37;;;;;;;31.63;27.95;;;;;;;4.41;100.00;100063.06;2087246;28;20481;-73
2021/11/06 03:45:38;;;;;;;32.35;27.75;;;;;;;4.43;100.00;100063.66;2096437;28;20381;-75
2021/11/06 03:46:39;;;;;;;32.38;27.50;;;;;;;4.40;100.00;100056.19;2095990;28;20692;-76
2021/11/06 03:47:41;;;;;;;32.40;28.27;;;;;;;4.37;100.00;100059.28;2087991;28;20566;-76
2021/11/06 03:48:44;;;;;;;30.50;26.67;;;;;;;4.34;100.00;100054.44;2096435;28;20284;-77
2021/11/06 03:49:46;;;;;;;31.35;27.45;;;;;;;4.38;100.00;100070.66;2096805;28;20222;-77
2021/11/06 03:50:47;;;;;;;31.75;27.23;;;;;;;4.32;100.00;100058.38;2097068;28;20723;-76
2021/11/06 03:51:49;;;;;;;31.20;27.80;;;;;;;4.28;100.00;100065.97;2096182;28;20661;-76
2021/11/06 03:52:49;;;;;;;32.20;27.13;;;;;;;4.25;100.00;100063.75;2096281;28;20222;-77
2021/11/06 03:53:52;;;;;;;29.07;25.93;;;;;;;4.21;100.00;100054.69;2095244;28;20315;-76
2021/11/06 03:54:56;;;;;;;31.08;27.88;;;;;;;4.23;100.00;100060.53;2102342;28;20263;-76
2021/11/06 03:56:02;;;;;;;30.33;27.00;;;;;;;4.23;100.00;100064.00;2098288;28;20230;-76
2021/11/06 03:57:03;;;;;;;35.08;28.38;;;;;;;4.18;100.00;100065.72;2097026;28;20218;-77
2021/11/06 03:58:05;;;;;;;31.02;26.92;;;;;;;4.19;100.00;100068.13;2096949;28;20222;-76
2021/11/06 03:59:06;;;;;;;30.73;27.48;;;;;;;4.19;100.00;100069.97;2097086;28;20214;-77
2021/11/06 04:00:09;;;;;;;29.77;26.67;;;;;;;4.18;100.00;100065.72;2097005;28;20297;-77
2021/11/06 04:01:10;;;;;;;32.08;27.52;;;;;;;4.18;100.00;100073.66;2104188;28;20224;-76
2021/11/06 04:02:12;;;;;;;32.33;27.87;;;;;;;4.23;100.00;100073.75;2095837;28;20233;-77
2021/11/06 04:03:12;;;;;;;32.25;28.80;;;;;;;4.19;100.00;100073.41;2104787;28;20228;-76
2021/11/06 04:04:14;;;;;;;33.50;28.37;;;;;;;4.15;100.00;100072.25;2105365;28;20231;-75
2021/11/06 04:05:16;;;;;;;32.75;27.75;;;;;;;4.15;100.00;100077.53;2105143;28;20339;-77
2021/11/06 04:06:17;;;;;;;39.90;28.27;;;;;;;4.16;100.00;100078.34;2105348;28;20224;-76
2021/11/06 04:07:18;;;;;;;31.65;28.00;;;;;;;4.16;100.00;100083.63;2104535;28;20233;-76
2021/11/06 04:08:20;;;;;;;33.30;28.53;;;;;;;4.15;100.00;100084.66;2104696;28;20241;-76
2021/11/06 04:09:22;;;;;;;30.30;26.98;;;;;;;4.13;100.00;100084.09;2105319;28;20220;-76
2021/11/06 04:10:24;;;;;;;32.78;28.35;;;;;;;4.13;100.00;100084.09;2103171;28;20217;-76
2021/11/06 04:11:25;;;;;;;32.65;28.75;;;;;;;4.11;100.00;100086.16;2104391;28;20247;-76
2021/11/06 04:12:27;;;;;;;32.13;28.57;;;;;;;4.08;100.00;100086.59;2104472;28;20221;-76
2021/11/06 04:13:27;;;;;;;32.67;28.48;;;;;;;4.02;100.00;100082.25;2104045;28;20769;-76
2021/11/06 04:14:29;;;;;;;32.43;28.10;;;;;;;4.02;100.00;100082.25;2104475;28;20652;-76
2021/11/06 04:15:30;;;;;;;35.95;29.85;;;;;;;4.00;100.00;100089.56;2105287;28;20217;-77
2021/11/06 04:16:32;;;;;;;30.97;27.17;;;;;;;3.98;100.00;100082.69;2105278;28;20695;-77
2021/11/06 04:17:32;;;;;;;31.02;27.33;;;;;;;3.97;100.00;100089.00;2105099;28;20221;-77
2021/11/06 04:18:34;;;;;;;32.13;27.97;;;;;;;3.95;100.00;100082.34;2105291;28;20274;-76
2021/11/06 04:19:35;;;;;;;32.00;28.17;;;;;;;3.95;100.00;100085.78;2105156;28;20229;-77
2021/11/06 04:20:36;;;;;;;31.57;27.33;;;;;;;3.93;100.00;100085.22;2105251;28;20804;-77
2021/11/06 04:21:38;;;;;;;32.60;29.05;;;;;;;3.90;100.00;100084.84;2104860;28;20714;-76
2021/11/06 04:22:40;;;;;;;31.15;27.73;;;;;;;3.89;100.00;100081.41;2103927;28;20235;-76
2021/11/06 04:23:45;;;;;;;32.97;28.10;;;;;;;3.88;100.00;100086.91;2103700;28;20298;-77
2021/11/06 04:24:48;;;;;;;32.65;28.50;;;;;;;3.86;100.00;100089.78;2104516;28;20225;-77
2021/11/06 04:25:49;;;;;;;36.13;28.40;;;;;;;3.84;100.00;100085.78;2105315;28;20718;-77
2021/11/06 04:26:50;;;;;;;32.35;28.70;;;;;;;3.82;100.00;100093.91;2105285;28;20218;-77
2021/11/06 04:27:52;;;;;;;32.87;27.57;;;;;;;3.80;100.00;100090.69;2103962;28;20301;-76
2021/11/06 04:28:53;;;;;;;37.88;28.92;;;;;;;3.81;100.00;100092.28;2095690;28;20322;-76
2021/11/06 04:29:54;;;;;;;33.50;28.33;;;;;;;3.80;100.00;100098.59;2095945;28;20279;-76
2021/11/06 04:30:57;;;;;;;32.40;27.58;;;;;;;3.78;100.00;100095.38;2104453;28;20221;-76
2021/11/06 04:32:00;;;;;;;34.55;28.00;;;;;;;3.77;100.00;100093.78;2105254;28;20279;-76
2021/11/06 04:33:01;;;;;;;31.92;28.42;;;;;;;3.75;100.00;100093.22;2105164;28;20237;-76
2021/11/06 04:34:02;;;;;;;32.87;28.70;;;;;;;3.74;100.00;100102.16;2105116;28;20703;-76
2021/11/06 04:35:04;;;;;;;32.90;29.27;;;;;;;3.75;100.00;100106.41;2104112;28;20221;-77
2021/11/06 04:36:07;;;;;;;34.53;29.13;;;;;;;3.78;100.00;100105.94;2104536;28;20221;-76
2021/11/06 04:37:09;;;;;;;34.33;29.10;;;;;;;3.81;100.00;100102.84;2104686;28;20695;-76
2021/11/06 04:38:13;;;;;;;33.55;29.73;;;;;;;3.79;100.00;100107.56;2105037;28;20225;-76
2021/11/06 04:39:14;;;;;;;33.13;29.52;;;;;;;3.81;100.00;100109.97;2104404;28;20221;-76
2021/11/06 04:40:17;;;;;;;33.47;28.63;;;;;;;3.84;100.00;100110.34;2095736;28;20275;-77
2021/11/06 04:41:18;;;;;;;32.90;28.38;;;;;;;3.82;100.00;100109.75;2095170;28;20218;-75